Terminal Aerodrome Forecast
Issued by NWS

Home | Current Version | Previous Version | Text Only | Print | Product List | Glossary Off
Versions: 1 2 3 4 5 6 7 8 9 10 11 12

523
FTUS43 KBIS 241129
TAFDIK
TAF
KDIK 241129Z 2412/2512 31010KT P6SM SKC
     FM241400 32015G23KT P6SM SKC
     FM250100 35013KT P6SM FEW080
     FM250500 11005KT P6SM SKC
     FM250900 23005KT P6SM BKN070=

USA.gov is the U.S. government's official web portal to all federal, state and local government web resources and services.